Time;durP1;ratioP1;P1;durP2;ratioP2;P2;SDS_P1;SDS_P2;PMS_P1;PMS_P2;Temp;Humidity;BMP_temperature;BMP_pressure;BME280_temperature;BME280_humidity;BME280_pressure;Samples;Min_cycle;Max_cycle;Signal;HPM_P1;HPM_P2
2023/03/11 00:00:28;;;;;;;9.35;2.10;;;3.10;99.90;;;;;;4192616;28;20090;-78
2023/03/11 00:02:29;;;;;;;6.38;1.90;;;3.10;99.90;;;;;;4195127;28;20525;-79
2023/03/11 00:04:29;;;;;;;7.63;1.67;;;3.10;99.90;;;;;;4194359;28;20041;-79
2023/03/11 00:06:30;;;;;;;9.60;1.83;;;3.20;99.90;;;;;;4185514;28;20087;-80
2023/03/11 00:08:30;;;;;;;6.35;1.95;;;3.10;99.90;;;;;;4193118;28;20051;-79
2023/03/11 00:10:34;;;;;;;4.70;1.50;;;3.00;99.90;;;;;;4193773;28;20028;-79
2023/03/11 00:12:35;;;;;;;8.93;1.52;;;3.00;99.90;;;;;;4195207;28;20028;-79
2023/03/11 00:14:35;;;;;;;7.30;1.95;;;3.10;99.90;;;;;;4195880;28;20089;-78
2023/03/11 00:16:36;;;;;;;5.05;1.27;;;3.10;99.90;;;;;;4190990;28;20497;-78
2023/03/11 00:18:36;;;;;;;6.63;1.40;;;3.10;99.90;;;;;;4192738;28;20101;-79
2023/03/11 00:20:40;;;;;;;7.65;1.45;;;3.10;99.90;;;;;;4194521;28;20037;-79
2023/03/11 00:22:40;;;;;;;7.80;1.50;;;3.10;99.90;;;;;;4193293;28;20551;-79
2023/03/11 00:24:41;;;;;;;6.78;1.60;;;3.10;99.90;;;;;;4194024;28;20060;-80
2023/03/11 00:26:41;;;;;;;7.68;1.60;;;3.10;99.90;;;;;;4191253;28;20049;-80
2023/03/11 00:28:42;;;;;;;5.28;1.50;;;3.10;99.90;;;;;;4187717;28;20095;-79
2023/03/11 00:30:44;;;;;;;7.90;1.55;;;3.10;99.90;;;;;;4190825;28;20029;-80
2023/03/11 00:32:50;;;;;;;11.07;2.05;;;3.10;99.90;;;;;;4194380;28;20463;-80
2023/03/11 00:34:51;;;;;;;9.30;1.90;;;3.10;99.90;;;;;;4193850;28;20036;-80
2023/03/11 00:36:51;;;;;;;8.57;1.63;;;3.10;99.90;;;;;;4182100;28;20112;-75
2023/03/11 00:38:52;;;;;;;7.47;1.90;;;3.20;99.90;;;;;;4176563;28;20087;-79
2023/03/11 00:40:52;;;;;;;5.22;1.80;;;3.20;99.90;;;;;;4189483;28;20037;-79
2023/03/11 00:42:53;;;;;;;4.97;1.77;;;3.20;99.90;;;;;;4193284;28;20036;-79
2023/03/11 00:44:53;;;;;;;9.15;2.20;;;3.20;99.90;;;;;;4194231;28;20169;-79
2023/03/11 00:46:54;;;;;;;5.88;1.90;;;3.20;99.90;;;;;;4191251;28;20480;-80
2023/03/11 00:48:55;;;;;;;7.90;1.50;;;3.20;99.90;;;;;;4183655;28;20039;-79
2023/03/11 00:50:55;;;;;;;4.40;1.35;;;3.20;99.90;;;;;;4181180;28;20029;-79
2023/03/11 00:52:56;;;;;;;12.05;1.83;;;3.20;99.90;;;;;;4192876;28;20029;-80
2023/03/11 00:55:00;;;;;;;6.30;1.50;;;3.30;99.90;;;;;;4191990;28;20040;-80
2023/03/11 00:57:00;;;;;;;10.27;1.73;;;3.30;99.90;;;;;;4186860;28;20044;-79
2023/03/11 00:59:01;;;;;;;7.25;1.60;;;3.30;99.90;;;;;;4189506;28;20537;-80
2023/03/11 01:01:10;;;;;;;16.83;2.92;;;3.30;99.90;;;;;;4190747;28;20128;-80
2023/03/11 01:03:10;;;;;;;11.15;1.58;;;3.20;99.90;;;;;;4194167;28;20036;-80
2023/03/11 01:05:12;;;;;;;4.03;1.35;;;3.20;99.90;;;;;;4188054;28;20439;-79
2023/03/11 01:07:12;;;;;;;9.13;1.90;;;3.20;99.90;;;;;;4187643;28;20051;-80
2023/03/11 01:09:13;;;;;;;6.72;1.75;;;3.20;99.90;;;;;;4190959;28;20032;-79
2023/03/11 01:11:13;;;;;;;5.75;1.33;;;3.20;99.90;;;;;;4192027;28;20037;-79
2023/03/11 01:13:14;;;;;;;7.00;1.80;;;3.30;99.90;;;;;;4194897;28;20037;-79
2023/03/11 01:15:28;;;;;;;10.85;1.67;;;3.30;99.90;;;;;;4191067;28;20041;-80
2023/03/11 01:17:28;;;;;;;10.02;1.70;;;3.30;99.90;;;;;;4192919;28;20107;-80
2023/03/11 01:19:29;;;;;;;8.70;1.70;;;3.40;99.90;;;;;;4180394;28;20072;-80
2023/03/11 01:21:29;;;;;;;7.43;1.42;;;3.40;99.90;;;;;;4178859;28;20104;-79
2023/03/11 01:23:31;;;;;;;5.05;1.75;;;3.40;99.90;;;;;;4191121;28;20519;-80
2023/03/11 01:25:32;;;;;;;8.63;1.63;;;3.40;99.90;;;;;;4190453;28;20044;-80
2023/03/11 01:27:32;;;;;;;8.70;1.80;;;3.40;99.90;;;;;;4193555;28;20121;-79
2023/03/11 01:29:33;;;;;;;9.68;1.60;;;3.40;99.90;;;;;;4192608;28;20040;-80
2023/03/11 01:31:34;;;;;;;3.17;1.25;;;3.50;99.90;;;;;;4191464;28;20036;-79
2023/03/11 01:33:34;;;;;;;7.32;1.77;;;3.50;99.90;;;;;;4193652;28;20032;-79
2023/03/11 01:35:35;;;;;;;5.15;1.42;;;3.40;99.90;;;;;;4190085;28;20101;-80
2023/03/11 01:37:35;;;;;;;7.65;1.83;;;3.40;99.90;;;;;;4192110;28;20044;-80
2023/03/11 01:39:36;;;;;;;9.85;2.03;;;3.40;99.90;;;;;;4189846;28;20048;-80
2023/03/11 01:41:36;;;;;;;8.30;1.85;;;3.40;99.90;;;;;;4193824;28;20036;-80
2023/03/11 01:43:43;;;;;;;10.25;1.65;;;3.40;99.90;;;;;;4192787;28;20033;-74
2023/03/11 01:45:49;;;;;;;7.30;2.10;;;3.40;99.90;;;;;;4190183;28;20609;-80
2023/03/11 01:47:50;;;;;;;5.03;1.58;;;3.30;99.90;;;;;;4192107;28;20092;-80
2023/03/11 01:49:50;;;;;;;6.97;2.33;;;3.30;99.90;;;;;;4194022;28;20133;-79
2023/03/11 01:51:55;;;;;;;8.82;1.90;;;3.30;99.90;;;;;;4192848;28;20500;-79
2023/03/11 01:53:58;;;;;;;7.47;1.52;;;3.30;99.90;;;;;;4191985;28;20032;-79
2023/03/11 01:56:01;;;;;;;10.75;2.47;;;3.30;99.90;;;;;;4188079;28;20072;-80
2023/03/11 01:58:06;;;;;;;4.38;1.30;;;3.30;99.90;;;;;;4183625;28;20120;-80
2023/03/11 02:00:08;;;;;;;6.40;2.25;;;3.30;99.90;;;;;;4192606;28;20033;-79
2023/03/11 02:02:12;;;;;;;;;;;3.30;99.90;;;;;;4194177;28;20475;-79
2023/03/11 02:04:14;;;;;;;4.70;1.58;;;3.20;99.90;;;;;;4188606;28;20020;-80
2023/03/11 02:06:20;;;;;;;4.67;1.77;;;3.20;99.90;;;;;;4188553;28;20040;-79
2023/03/11 02:08:21;;;;;;;4.95;1.52;;;3.20;99.90;;;;;;4189255;28;20042;-79
2023/03/11 02:10:21;;;;;;;11.27;1.88;;;3.20;99.90;;;;;;4193306;28;20064;-79
2023/03/11 02:12:22;;;;;;;7.57;2.28;;;3.10;99.90;;;;;;4193588;28;20419;-79
2023/03/11 02:14:24;;;;;;;10.30;2.22;;;3.10;99.90;;;;;;4196818;28;20044;-75
2023/03/11 02:16:25;;;;;;;6.18;1.88;;;3.00;99.90;;;;;;4193090;28;20091;-79
2023/03/11 02:18:26;;;;;;;9.25;1.52;;;3.00;99.90;;;;;;4189743;28;20523;-79
2023/03/11 02:21:11;;;;;;;6.97;1.70;;;2.90;99.90;;;;;;4180110;28;20086;-79
2023/03/11 02:23:17;;;;;;;5.85;1.67;;;2.90;99.90;;;;;;4184391;28;20033;-79
2023/03/11 02:25:36;;;;;;;13.52;1.80;;;2.90;99.90;;;;;;4195328;28;20115;-79
2023/03/11 02:27:40;;;;;;;8.10;1.55;;;2.90;99.90;;;;;;4194520;28;20067;-79
2023/03/11 02:29:43;;;;;;;8.15;1.33;;;2.80;99.90;;;;;;4195423;28;20034;-79
2023/03/11 02:31:44;;;;;;;7.07;1.77;;;2.80;99.90;;;;;;4194748;28;20075;-79
2023/03/11 02:33:47;;;;;;;9.20;1.55;;;2.80;99.90;;;;;;4196247;28;20040;-79
2023/03/11 02:35:48;;;;;;;9.95;1.77;;;2.70;99.90;;;;;;4192905;28;20029;-79
2023/03/11 02:37:51;;;;;;;12.30;2.78;;;2.70;99.90;;;;;;4192795;28;20482;-79
2023/03/11 02:40:17;;;;;;;11.13;2.05;;;2.70;99.90;;;;;;4193390;28;20024;-79
2023/03/11 02:42:28;;;;;;;9.35;1.70;;;2.60;99.90;;;;;;4196283;28;20044;-79
2023/03/11 02:44:28;;;;;;;8.30;1.58;;;2.60;99.90;;;;;;4195609;28;20445;-79
2023/03/11 02:46:30;;;;;;;6.38;1.10;;;2.60;99.90;;;;;;4193393;28;20076;-79
2023/03/11 02:48:31;;;;;;;10.90;1.90;;;2.60;99.90;;;;;;4193879;28;20029;-79
2023/03/11 02:50:33;;;;;;;7.60;1.90;;;2.60;99.90;;;;;;4195440;28;20029;-78
2023/03/11 02:52:34;;;;;;;10.93;1.63;;;2.60;99.90;;;;;;4195199;28;20115;-78
2023/03/11 02:54:35;;;;;;;5.40;1.60;;;2.50;99.90;;;;;;4195482;28;20040;-78
2023/03/11 02:56:35;;;;;;;10.73;1.67;;;2.50;99.90;;;;;;4192802;28;20475;-78
2023/03/11 02:58:36;;;;;;;8.13;1.33;;;2.50;99.90;;;;;;4189694;28;20029;-78
2023/03/11 03:00:37;;;;;;;4.88;1.35;;;2.50;99.90;;;;;;4194800;28;20028;-78
2023/03/11 03:02:37;;;;;;;5.20;1.20;;;2.50;99.90;;;;;;4194823;28;20044;-78
2023/03/11 03:04:38;;;;;;;8.50;1.83;;;2.50;99.90;;;;;;4193676;28;20055;-74
2023/03/11 03:06:38;;;;;;;8.13;1.38;;;2.50;99.90;;;;;;4191505;28;20047;-77
2023/03/11 03:08:39;;;;;;;7.65;1.90;;;2.50;99.90;;;;;;4190570;28;20105;-77
2023/03/11 03:10:40;;;;;;;5.65;1.60;;;2.50;99.90;;;;;;4194144;28;20365;-77
2023/03/11 03:12:41;;;;;;;6.72;1.80;;;2.40;99.90;;;;;;4191161;28;20040;-77
2023/03/11 03:14:41;;;;;;;6.45;1.27;;;2.40;99.90;;;;;;4196692;28;20029;-77
2023/03/11 03:16:42;;;;;;;6.22;1.35;;;2.40;99.90;;;;;;4192178;28;20530;-77
2023/03/11 03:18:42;;;;;;;4.22;1.17;;;2.40;99.90;;;;;;4194595;28;20106;-77
2023/03/11 03:20:43;;;;;;;6.85;1.80;;;2.40;99.90;;;;;;4194599;28;23495;-77
2023/03/11 03:22:44;;;;;;;12.30;1.52;;;2.40;99.90;;;;;;4194691;28;20233;-76
2023/03/11 03:24:44;;;;;;;3.00;1.15;;;2.40;99.90;;;;;;4194829;28;20056;-77
2023/03/11 03:26:45;;;;;;;6.40;1.38;;;2.50;99.90;;;;;;4189067;28;20040;-77
2023/03/11 03:28:46;;;;;;;9.52;1.30;;;2.50;99.90;;;;;;4191365;28;20077;-77
2023/03/11 03:30:46;;;;;;;5.93;1.30;;;2.50;99.90;;;;;;4192197;28;20032;-77
2023/03/11 03:32:47;;;;;;;4.88;1.20;;;2.60;99.90;;;;;;4196728;28;20474;-77
2023/03/11 03:34:47;;;;;;;3.63;1.02;;;2.60;99.90;;;;;;4194663;28;20478;-77
2023/03/11 03:36:48;;;;;;;7.93;1.40;;;2.60;99.90;;;;;;4189220;28;20043;-77
2023/03/11 03:38:56;;;;;;;4.97;1.30;;;2.60;99.90;;;;;;4187248;28;20032;-76
2023/03/11 03:40:56;;;;;;;5.03;1.30;;;2.60;99.90;;;;;;4189601;28;20470;-76
2023/03/11 03:42:57;;;;;;;6.82;1.73;;;2.60;99.90;;;;;;4195305;28;20029;-76
2023/03/11 03:44:57;;;;;;;2.75;0.88;;;2.60;99.90;;;;;;4196155;28;20040;-77
2023/03/11 03:46:58;;;;;;;5.55;1.40;;;2.60;99.90;;;;;;4192050;28;20048;-76
2023/03/11 03:48:59;;;;;;;8.98;1.52;;;2.70;99.90;;;;;;4194144;28;20051;-77
2023/03/11 03:51:10;;;;;;;4.28;1.40;;;2.70;99.90;;;;;;4194374;28;20392;-76
2023/03/11 03:53:11;;;;;;;6.68;1.45;;;2.70;99.90;;;;;;4193180;28;20055;-76
2023/03/11 03:55:11;;;;;;;5.30;1.40;;;2.70;99.90;;;;;;4193995;28;20041;-77
2023/03/11 03:57:12;;;;;;;8.82;1.30;;;2.70;99.90;;;;;;4193437;28;20032;-77
2023/03/11 03:59:12;;;;;;;4.97;1.27;;;2.70;99.90;;;;;;4184388;28;20499;-76
2023/03/11 04:01:13;;;;;;;6.85;1.58;;;2.70;99.90;;;;;;4187999;28;20036;-76
2023/03/11 04:03:13;;;;;;;6.60;1.92;;;2.70;99.90;;;;;;4196004;28;20044;-76
2023/03/11 04:05:14;;;;;;;3.25;1.15;;;2.80;99.90;;;;;;4194563;28;20068;-77
2023/03/11 04:07:15;;;;;;;8.48;1.35;;;2.70;99.90;;;;;;4192471;28;20055;-76
2023/03/11 04:09:15;;;;;;;5.10;1.27;;;2.70;99.90;;;;;;4187718;28;20048;-77
2023/03/11 04:11:16;;;;;;;4.28;1.27;;;2.80;99.90;;;;;;4192367;28;20027;-76
2023/03/11 04:13:17;;;;;;;3.92;1.35;;;2.80;99.90;;;;;;4196536;28;20059;-76
2023/03/11 04:15:17;;;;;;;5.03;1.25;;;2.80;99.90;;;;;;4193648;28;20036;-77
2023/03/11 04:17:18;;;;;;;6.90;1.10;;;2.80;99.90;;;;;;4181366;28;20105;-77
2023/03/11 04:19:19;;;;;;;6.45;1.80;;;2.80;99.90;;;;;;4189225;28;20032;-77
2023/03/11 04:21:19;;;;;;;4.65;1.50;;;2.80;99.90;;;;;;4194383;28;20029;-77
2023/03/11 04:23:20;;;;;;;7.75;1.50;;;2.80;99.90;;;;;;4194248;28;20037;-77
2023/03/11 04:25:20;;;;;;;5.30;1.40;;;2.80;99.90;;;;;;4193844;28;20036;-77
2023/03/11 04:27:21;;;;;;;2.92;1.20;;;2.80;99.90;;;;;;4192196;28;20048;-77
2023/03/11 04:29:22;;;;;;;3.65;1.20;;;2.80;99.90;;;;;;4193975;28;20471;-77
2023/03/11 04:31:22;;;;;;;4.47;1.20;;;2.80;99.90;;;;;;4188520;28;20099;-77
2023/03/11 04:33:23;;;;;;;5.57;1.70;;;2.80;99.90;;;;;;4179489;28;20029;-77
2023/03/11 04:35:24;;;;;;;3.83;1.35;;;2.80;99.90;;;;;;4194444;28;20024;-76
2023/03/11 04:37:28;;;;;;;4.03;1.27;;;2.80;99.90;;;;;;4190025;28;20063;-77
2023/03/11 04:39:28;;;;;;;2.30;1.20;;;2.80;99.90;;;;;;4184064;28;20032;-77
2023/03/11 04:41:29;;;;;;;4.95;1.23;;;2.80;99.90;;;;;;4193326;28;20036;-77
2023/03/11 04:43:30;;;;;;;4.10;1.35;;;2.80;99.90;;;;;;4195792;28;20028;-77
2023/03/11 04:45:31;;;;;;;4.60;1.20;;;2.80;99.90;;;;;;4192181;28;20527;-77
2023/03/11 04:47:31;;;;;;;9.45;1.55;;;2.80;99.90;;;;;;4193916;28;20048;-77
2023/03/11 04:49:32;;;;;;;5.35;1.40;;;2.70;99.90;;;;;;4181468;28;20037;-77
2023/03/11 04:51:32;;;;;;;5.43;1.60;;;2.80;99.90;;;;;;4190106;28;20032;-77
2023/03/11 04:53:33;;;;;;;2.10;1.17;;;2.80;99.90;;;;;;4193949;28;20036;-77
2023/03/11 04:55:34;;;;;;;4.30;1.30;;;2.80;99.90;;;;;;4192117;28;20033;-76
2023/03/11 04:57:35;;;;;;;7.20;1.67;;;2.80;99.90;;;;;;4186070;28;20098;-77
2023/03/11 04:59:36;;;;;;;3.55;1.30;;;2.80;99.90;;;;;;4180887;28;20116;-77
2023/03/11 05:01:36;;;;;;;3.97;1.35;;;2.80;99.90;;;;;;4188859;28;20029;-77
2023/03/11 05:03:37;;;;;;;5.60;1.70;;;2.80;99.90;;;;;;4195321;28;20032;-77
2023/03/11 05:05:37;;;;;;;5.97;1.70;;;2.90;99.90;;;;;;4193325;28;20475;-76
2023/03/11 05:07:38;;;;;;;3.13;1.30;;;2.80;99.90;;;;;;4184619;28;20467;-76
2023/03/11 05:09:38;;;;;;;6.40;1.73;;;2.80;99.90;;;;;;4183320;28;20115;-77
2023/03/11 05:11:39;;;;;;;5.72;1.58;;;2.80;99.90;;;;;;4192646;28;20135;-77
2023/03/11 05:13:39;;;;;;;6.03;1.75;;;2.80;99.90;;;;;;4195535;28;20067;-76
2023/03/11 05:15:41;;;;;;;9.63;1.77;;;2.80;99.90;;;;;;4191775;28;20036;-77
2023/03/11 05:17:42;;;;;;;6.22;1.42;;;2.80;99.90;;;;;;4194299;28;20102;-77
2023/03/11 05:19:42;;;;;;;4.25;1.42;;;2.80;99.90;;;;;;4194514;28;20041;-76
2023/03/11 05:21:43;;;;;;;4.00;1.30;;;2.80;99.90;;;;;;4193777;28;20039;-77
2023/03/11 05:23:44;;;;;;;7.38;1.85;;;2.80;99.90;;;;;;4193635;28;20036;-77
2023/03/11 05:25:44;;;;;;;6.47;1.80;;;2.90;99.90;;;;;;4190629;28;20036;-77
2023/03/11 05:27:45;;;;;;;7.43;1.35;;;2.80;99.90;;;;;;4192076;28;20975;-76
2023/03/11 05:29:46;;;;;;;3.78;1.33;;;2.80;99.90;;;;;;4177655;28;20041;-76
2023/03/11 05:31:47;;;;;;;5.38;1.40;;;2.90;99.90;;;;;;4183524;28;20037;-75
2023/03/11 05:33:47;;;;;;;4.13;1.25;;;2.90;99.90;;;;;;4178869;28;20402;-76
2023/03/11 05:35:50;;;;;;;6.65;1.63;;;2.90;99.90;;;;;;4172638;28;20067;-76
2023/03/11 05:37:52;;;;;;;;;;;2.90;99.90;;;;;;4187378;28;20051;-76
2023/03/11 05:39:53;;;;;;;3.75;1.63;;;2.90;99.90;;;;;;4178346;28;19962;-77
2023/03/11 05:41:55;;;;;;;3.58;1.25;;;2.90;99.90;;;;;;4191820;28;20071;-76
2023/03/11 05:43:56;;;;;;;7.35;1.33;;;2.90;99.90;;;;;;4191185;28;20383;-77
2023/03/11 05:45:56;;;;;;;7.90;1.52;;;2.90;99.90;;;;;;4190252;28;20045;-76
2023/03/11 05:47:57;;;;;;;5.22;1.38;;;3.00;99.90;;;;;;4192541;28;20364;-76
2023/03/11 05:49:58;;;;;;;4.85;1.30;;;2.90;99.90;;;;;;4194062;28;20115;-76
2023/03/11 05:51:58;;;;;;;4.05;1.20;;;3.00;99.90;;;;;;4191871;28;20037;-76
2023/03/11 05:53:59;;;;;;;7.78;1.92;;;3.00;99.90;;;;;;4193805;28;20367;-78
2023/03/11 05:56:00;;;;;;;4.10;1.52;;;3.00;99.90;;;;;;4190506;28;20043;-76
2023/03/11 05:58:01;;;;;;;2.80;1.20;;;3.00;99.90;;;;;;4191527;28;20396;-77
2023/03/11 06:00:06;;;;;;;3.55;1.40;;;3.00;99.90;;;;;;4191892;28;20119;-77
2023/03/11 06:02:06;;;;;;;7.15;1.77;;;3.00;99.90;;;;;;4194344;28;20517;-76
2023/03/11 06:04:07;;;;;;;6.57;1.50;;;3.00;99.90;;;;;;4188772;28;20052;-77
2023/03/11 06:06:09;;;;;;;3.67;1.58;;;2.90;99.90;;;;;;4166645;28;20045;-76
2023/03/11 06:08:10;;;;;;;5.47;1.35;;;2.90;99.90;;;;;;4157642;28;20029;-76
2023/03/11 06:10:11;;;;;;;3.17;1.50;;;2.90;99.90;;;;;;4173204;28;20079;-77
2023/03/11 06:12:11;;;;;;;4.93;1.55;;;2.90;99.90;;;;;;4173186;28;20036;-75
2023/03/11 06:14:13;;;;;;;3.30;1.20;;;2.90;99.90;;;;;;4177193;28;20613;-75
2023/03/11 06:16:14;;;;;;;5.13;1.57;;;3.00;99.90;;;;;;4174340;28;20037;-75
2023/03/11 06:18:14;;;;;;;4.15;1.40;;;2.90;99.90;;;;;;4174887;28;20037;-75
2023/03/11 06:20:15;;;;;;;3.42;1.33;;;2.90;99.90;;;;;;4174383;28;20052;-76
2023/03/11 06:22:15;;;;;;;2.88;1.50;;;2.90;99.90;;;;;;4172927;28;20052;-76
2023/03/11 06:24:16;;;;;;;4.97;1.63;;;2.90;99.90;;;;;;4174104;28;20550;-76
2023/03/11 06:26:19;;;;;;;5.38;1.58;;;3.00;99.90;;;;;;4174616;28;20049;-76
2023/03/11 06:28:19;;;;;;;5.45;1.63;;;2.90;99.90;;;;;;4166104;28;20056;-76
2023/03/11 06:30:20;;;;;;;4.05;1.35;;;2.90;99.90;;;;;;4165367;28;20033;-76
2023/03/11 06:32:21;;;;;;;6.05;1.42;;;2.90;99.90;;;;;;4177039;28;20068;-76
2023/03/11 06:34:22;;;;;;;3.67;1.45;;;2.90;99.90;;;;;;4174832;28;20025;-76
2023/03/11 06:36:24;;;;;;;4.13;1.25;;;2.90;99.90;;;;;;4168988;28;20033;-76
2023/03/11 06:38:25;;;;;;;4.00;1.45;;;2.90;99.90;;;;;;4166239;28;20045;-75
2023/03/11 06:40:26;;;;;;;3.38;1.38;;;3.00;99.90;;;;;;4164004;28;20036;-75
2023/03/11 06:42:26;;;;;;;4.82;1.50;;;3.00;99.90;;;;;;4175313;28;20116;-73
2023/03/11 06:44:27;;;;;;;1.65;0.93;;;3.00;99.90;;;;;;4175230;28;20040;-74
2023/03/11 06:46:27;;;;;;;5.07;1.67;;;3.00;99.90;;;;;;4171582;28;20057;-73
2023/03/11 06:48:28;;;;;;;7.97;2.05;;;3.00;99.90;;;;;;4168343;28;20041;-72
2023/03/11 06:50:28;;;;;;;2.20;1.00;;;3.00;99.90;;;;;;4174988;28;20036;-72
2023/03/11 06:52:29;;;;;;;3.00;1.05;;;3.00;99.90;;;;;;4175211;28;20037;-72
2023/03/11 06:54:29;;;;;;;4.90;1.60;;;3.00;99.90;;;;;;4170550;28;20048;-72
2023/03/11 06:56:30;;;;;;;3.15;1.48;;;3.00;99.90;;;;;;4174233;28;20036;-72
2023/03/11 06:58:31;;;;;;;10.27;2.05;;;2.90;99.90;;;;;;4174920;28;20037;-73
2023/03/11 07:00:32;;;;;;;2.70;1.60;;;3.00;99.90;;;;;;4173608;28;20365;-74
2023/03/11 07:02:33;;;;;;;7.82;1.92;;;3.10;99.90;;;;;;4175982;28;20124;-73
2023/03/11 07:04:33;;;;;;;6.88;1.80;;;3.10;99.90;;;;;;4183455;28;20049;-74
2023/03/11 07:06:34;;;;;;;3.75;1.52;;;3.30;99.90;;;;;;4188010;28;20047;-74
2023/03/11 07:08:34;;;;;;;4.30;2.10;;;3.40;99.90;;;;;;4188482;28;20088;-74
2023/03/11 07:10:35;;;;;;;5.68;1.90;;;3.60;99.90;;;;;;4192272;28;20044;-74
2023/03/11 07:12:35;;;;;;;2.92;1.52;;;3.80;99.90;;;;;;4194640;28;20037;-72
2023/03/11 07:14:36;;;;;;;8.25;1.50;;;4.00;99.90;;;;;;4192932;28;20036;-72
2023/03/11 07:16:38;;;;;;;6.53;1.90;;;4.20;99.90;;;;;;4190919;28;20441;-72
2023/03/11 07:18:39;;;;;;;5.15;1.92;;;4.40;99.90;;;;;;4191128;28;20024;-74
2023/03/11 07:20:39;;;;;;;5.95;1.98;;;4.60;99.90;;;;;;4195570;28;20379;-74
2023/03/11 07:22:40;;;;;;;3.90;1.80;;;4.80;99.90;;;;;;4193427;28;20478;-74
2023/03/11 07:24:40;;;;;;;3.20;1.55;;;5.00;99.90;;;;;;4194007;28;20483;-75
2023/03/11 07:26:41;;;;;;;4.43;1.52;;;5.20;99.90;;;;;;4190930;28;20049;-75
2023/03/11 07:28:43;;;;;;;7.90;1.70;;;5.40;99.90;;;;;;4192184;28;20479;-75
2023/03/11 07:30:45;;;;;;;2.92;1.60;;;5.60;99.90;;;;;;4190942;28;20446;-74
2023/03/11 07:32:46;;;;;;;7.90;1.80;;;5.80;99.90;;;;;;4196686;28;20064;-74
2023/03/11 07:34:46;;;;;;;3.50;1.55;;;6.00;99.90;;;;;;4194048;28;20694;-74
2023/03/11 07:36:47;;;;;;;6.10;1.73;;;6.20;99.90;;;;;;4190205;28;20044;-75
2023/03/11 07:38:48;;;;;;;6.28;1.50;;;6.50;99.90;;;;;;4192336;28;20487;-75
2023/03/11 07:40:57;;;;;;;5.88;1.63;;;6.70;99.90;;;;;;4194864;28;20032;-75
2023/03/11 07:42:58;;;;;;;4.97;1.40;;;6.90;99.90;;;;;;4192785;28;20052;-75
2023/03/11 07:44:58;;;;;;;4.38;1.70;;;7.10;99.90;;;;;;4195918;28;20040;-73
2023/03/11 07:47:04;;;;;;;9.57;1.60;;;7.40;99.90;;;;;;4190316;28;20036;-74
2023/03/11 07:49:05;;;;;;;7.60;1.73;;;7.60;99.90;;;;;;4186868;28;20127;-74
2023/03/11 07:51:11;;;;;;;3.50;1.45;;;7.80;99.90;;;;;;4194275;28;20090;-74
2023/03/11 07:53:12;;;;;;;6.63;2.00;;;8.10;99.90;;;;;;4201682;28;20120;-74
2023/03/11 07:55:13;;;;;;;3.20;1.48;;;8.30;99.90;;;;;;4190654;28;20478;-75
2023/03/11 07:57:16;;;;;;;4.40;1.88;;;8.50;99.90;;;;;;4183645;28;20108;-71
2023/03/11 07:59:16;;;;;;;4.43;1.90;;;8.80;99.90;;;;;;4192464;28;20061;-71
2023/03/11 08:01:19;;;;;;;5.30;1.73;;;9.10;99.90;;;;;;4194100;28;20035;-71
2023/03/11 08:03:20;;;;;;;4.32;1.40;;;9.40;99.90;;;;;;4195845;28;20043;-71
2023/03/11 08:05:20;;;;;;;6.10;1.55;;;9.60;99.90;;;;;;4194554;28;20048;-71
2023/03/11 08:07:21;;;;;;;4.10;1.67;;;9.80;99.90;;;;;;4193716;28;20040;-71
2023/03/11 08:09:22;;;;;;;4.05;1.50;;;10.00;99.90;;;;;;4197912;28;20040;-71
2023/03/11 08:11:23;;;;;;;5.40;1.42;;;10.20;99.90;;;;;;4209406;28;20032;-71
2023/03/11 08:13:24;;;;;;;7.70;1.65;;;10.50;99.90;;;;;;4195651;28;20039;-71
2023/03/11 08:15:24;;;;;;;6.00;1.60;;;10.60;99.90;;;;;;4193031;28;20111;-72
2023/03/11 08:17:25;;;;;;;4.10;1.42;;;10.80;99.90;;;;;;4188219;28;20044;-72
2023/03/11 08:19:25;;;;;;;7.40;1.70;;;11.10;99.90;;;;;;4194703;28;20055;-72
2023/03/11 08:21:30;;;;;;;5.03;1.50;;;11.30;99.90;;;;;;4193705;28;20078;-71
2023/03/11 08:23:31;;;;;;;2.90;1.00;;;11.50;99.90;;;;;;4181403;28;20048;-72
2023/03/11 08:25:31;;;;;;;5.25;1.40;;;11.60;99.90;;;;;;4192622;28;20045;-72
2023/03/11 08:27:32;;;;;;;3.78;1.70;;;11.90;99.90;;;;;;4192999;28;20041;-72
2023/03/11 08:29:32;;;;;;;4.10;1.30;;;12.00;99.90;;;;;;4179961;28;20099;-72
2023/03/11 08:31:34;;;;;;;4.22;1.60;;;12.00;99.90;;;;;;4174218;28;20054;-73
2023/03/11 08:33:34;;;;;;;3.08;1.10;;;12.30;99.90;;;;;;4188924;28;20383;-73
2023/03/11 08:35:35;;;;;;;5.13;1.10;;;12.30;99.90;;;;;;4184910;28;20053;-73
2023/03/11 08:37:36;;;;;;;3.70;1.25;;;12.20;99.90;;;;;;4193326;28;20044;-73
2023/03/11 08:39:36;;;;;;;2.88;1.30;;;12.20;99.90;;;;;;4187166;28;20468;-73
2023/03/11 08:41:37;;;;;;;2.20;1.10;;;12.20;99.90;;;;;;4194434;28;20383;-73
2023/03/11 08:43:38;;;;;;;4.32;1.20;;;12.20;99.90;;;;;;4195891;28;20052;-73
2023/03/11 08:45:40;;;;;;;3.97;1.17;;;12.10;99.90;;;;;;4190312;28;20029;-73
2023/03/11 08:47:40;;;;;;;2.60;1.23;;;12.10;99.90;;;;;;4191751;28;20066;-73
2023/03/11 08:49:41;;;;;;;2.85;1.17;;;11.90;99.90;;;;;;4192324;28;20111;-73
2023/03/11 08:51:42;;;;;;;2.88;1.42;;;11.80;99.90;;;;;;4191106;28;20472;-73
2023/03/11 08:53:42;;;;;;;4.22;1.13;;;11.70;99.90;;;;;;4193258;28;20045;-73
2023/03/11 08:55:43;;;;;;;10.25;1.85;;;11.70;99.90;;;;;;4188234;28;20056;-73
2023/03/11 08:57:43;;;;;;;5.10;1.10;;;11.60;99.90;;;;;;4192550;28;20049;-73
2023/03/11 08:59:44;;;;;;;3.47;1.00;;;11.60;99.90;;;;;;4194483;28;20056;-73
2023/03/11 09:01:45;;;;;;;3.15;1.35;;;11.60;99.90;;;;;;4192716;28;20566;-73
2023/03/11 09:03:46;;;;;;;3.22;1.23;;;11.50;99.90;;;;;;4193606;28;20048;-72
2023/03/11 09:05:47;;;;;;;3.05;1.02;;;11.40;99.90;;;;;;4189908;28;20463;-73
2023/03/11 09:07:48;;;;;;;2.35;0.82;;;11.40;99.90;;;;;;4188920;28;20063;-72
2023/03/11 09:09:48;;;;;;;3.75;0.85;;;11.30;99.90;;;;;;4192674;28;20621;-72
2023/03/11 09:11:49;;;;;;;3.47;0.95;;;11.20;99.90;;;;;;4192571;28;20041;-73
2023/03/11 09:13:50;;;;;;;3.10;1.30;;;11.10;99.90;;;;;;4192004;28;20064;-73
2023/03/11 09:15:51;;;;;;;3.00;0.90;;;11.00;99.90;;;;;;4187303;28;20082;-74
2023/03/11 09:17:53;;;;;;;1.77;0.90;;;10.90;99.90;;;;;;4191224;28;20040;-73
2023/03/11 09:19:53;;;;;;;2.22;0.90;;;10.80;99.90;;;;;;4193450;28;20032;-73
2023/03/11 09:21:54;;;;;;;2.42;1.10;;;10.80;99.90;;;;;;4188725;28;20501;-73
2023/03/11 09:23:54;;;;;;;2.58;0.98;;;10.70;99.90;;;;;;4188214;28;20055;-73
2023/03/11 09:25:55;;;;;;;1.65;0.70;;;10.70;99.90;;;;;;4189172;28;20037;-73
2023/03/11 09:27:55;;;;;;;3.30;0.88;;;10.60;99.90;;;;;;4191381;28;20067;-73
2023/03/11 09:29:56;;;;;;;4.38;1.15;;;10.60;99.90;;;;;;4192462;28;20032;-73
2023/03/11 09:31:57;;;;;;;3.38;0.75;;;10.50;99.90;;;;;;4191658;28;20111;-73
2023/03/11 09:33:58;;;;;;;1.85;0.73;;;10.50;99.90;;;;;;4188747;28;20037;-73
2023/03/11 09:35:58;;;;;;;2.60;0.70;;;10.40;99.90;;;;;;4189602;28;20518;-73
2023/03/11 09:37:59;;;;;;;1.77;0.60;;;10.40;99.90;;;;;;4188569;28;20127;-73
2023/03/11 09:40:00;;;;;;;6.10;1.08;;;10.40;99.90;;;;;;4192225;28;20086;-72
2023/03/11 09:42:21;;;;;;;5.05;1.00;;;10.30;99.90;;;;;;4191156;28;20134;-72
2023/03/11 09:44:43;;;;;;;1.58;0.68;;;10.30;99.90;;;;;;4189925;28;20106;-73
2023/03/11 09:47:09;;;;;;;2.63;0.93;;;10.20;99.90;;;;;;4187072;28;20044;-74
2023/03/11 09:49:16;;;;;;;1.33;0.70;;;10.30;99.90;;;;;;4191576;28;20029;-73
2023/03/11 09:51:27;;;;;;;2.33;0.55;;;10.30;99.90;;;;;;4190581;28;20036;-70
2023/03/11 09:53:37;;;;;;;1.80;0.80;;;10.20;99.90;;;;;;4193359;28;20464;-73
2023/03/11 09:55:48;;;;;;;4.32;0.98;;;10.10;99.90;;;;;;4182371;28;20028;-72
2023/03/11 09:57:50;;;;;;;4.25;0.80;;;10.10;99.90;;;;;;4191764;28;20035;-73
2023/03/11 09:59:51;;;;;;;3.60;0.75;;;10.00;99.90;;;;;;4194420;28;20406;-72
2023/03/11 10:01:52;;;;;;;4.30;1.05;;;9.90;99.90;;;;;;4192560;28;20075;-73
2023/03/11 10:03:56;;;;;;;2.95;0.65;;;9.80;99.90;;;;;;4190154;28;20071;-72
2023/03/11 10:06:11;;;;;;;1.23;0.70;;;9.70;99.90;;;;;;4179450;28;20040;-72
2023/03/11 10:08:42;;;;;;;2.63;0.82;;;9.70;99.90;;;;;;4189545;28;20036;-73
2023/03/11 10:10:50;;;;;;;4.20;0.80;;;9.70;99.90;;;;;;4184330;28;20169;-72
2023/03/11 10:13:22;;;;;;;1.13;0.40;;;9.70;99.90;;;;;;4188568;28;20166;-72
2023/03/11 10:15:41;;;;;;;3.95;0.80;;;9.60;99.90;;;;;;4191512;28;20041;-72
2023/03/11 10:18:00;;;;;;;1.27;0.60;;;9.50;99.90;;;;;;4189774;28;20093;-72
2023/03/11 10:20:16;;;;;;;2.22;0.90;;;9.50;99.90;;;;;;4194387;28;20029;-71
2023/03/11 10:22:28;;;;;;;3.20;0.73;;;9.50;99.90;;;;;;4193185;28;20483;-72
2023/03/11 10:24:52;;;;;;;1.30;0.70;;;9.50;99.90;;;;;;4193611;28;20029;-72
2023/03/11 10:27:00;;;;;;;2.10;0.57;;;9.50;99.90;;;;;;4186648;28;20146;-72
2023/03/11 10:29:31;;;;;;;1.45;0.52;;;9.50;99.90;;;;;;4188875;28;20044;-71
2023/03/11 10:31:45;;;;;;;2.17;0.75;;;9.50;99.90;;;;;;4185776;28;20043;-72
2023/03/11 10:33:53;;;;;;;1.40;0.70;;;9.50;99.90;;;;;;4197170;28;20037;-72
2023/03/11 10:35:57;;;;;;;3.45;0.88;;;9.40;99.90;;;;;;4193516;28;20067;-73
2023/03/11 10:38:04;;;;;;;3.92;0.93;;;9.40;99.90;;;;;;4189262;28;20086;-72
2023/03/11 10:40:17;;;;;;;2.05;0.60;;;9.40;99.90;;;;;;4196521;28;20029;-73
2023/03/11 10:42:26;;;;;;;0.73;0.55;;;9.40;99.90;;;;;;4197252;28;20129;-71
2023/03/11 10:44:41;;;;;;;1.05;0.50;;;9.40;99.90;;;;;;4197635;28;20040;-72